createdAt,value
2022-09-20T00:01:06.396Z,11.67
2022-09-20T00:03:33.155Z,11.63
2022-09-20T00:06:02.256Z,11.67
2022-09-20T00:08:28.981Z,11.69
2022-09-20T00:11:06.709Z,11.71
2022-09-20T00:13:34.145Z,11.64
2022-09-20T00:16:04.142Z,11.64
2022-09-20T00:18:30.585Z,11.61
2022-09-20T00:20:57.026Z,11.62
2022-09-20T00:23:23.546Z,11.63
2022-09-20T00:25:57.798Z,11.59
2022-09-20T00:28:25.117Z,11.47
2022-09-20T00:30:53.013Z,11.39
2022-09-20T00:33:20.385Z,11.38
2022-09-20T00:35:47.371Z,11.42
2022-09-20T00:38:14.711Z,11.45
2022-09-20T00:40:42.741Z,11.46
2022-09-20T00:43:17.353Z,11.44
2022-09-20T00:45:49.630Z,11.48
2022-09-20T00:48:28.789Z,11.48
2022-09-20T00:50:59.865Z,11.52
2022-09-20T00:53:30.805Z,11.52
2022-09-20T00:56:09.777Z,11.51
2022-09-20T00:58:41.054Z,11.47
2022-09-20T01:01:07.860Z,11.31
2022-09-20T01:03:36.596Z,11.44
2022-09-20T01:06:07.933Z,11.25
2022-09-20T01:08:36.175Z,11.39
2022-09-20T01:11:02.987Z,11.60
2022-09-20T01:13:29.479Z,11.56
2022-09-20T01:15:59.061Z,11.49
2022-09-20T01:18:28.221Z,11.48
2022-09-20T01:20:55.691Z,11.49
2022-09-20T01:24:02.948Z,11.52
2022-09-20T01:26:35.527Z,11.47
2022-09-20T01:29:12.437Z,11.49
2022-09-20T01:31:46.219Z,11.49
2022-09-20T01:34:25.873Z,11.35
2022-09-20T01:37:02.994Z,11.45
2022-09-20T01:39:36.068Z,11.54
2022-09-20T01:42:07.413Z,11.48
2022-09-20T01:44:53.062Z,11.63
2022-09-20T01:47:25.955Z,11.56
2022-09-20T01:49:59.986Z,11.53
2022-09-20T01:53:11.826Z,11.43
2022-09-20T01:55:47.250Z,11.31
2022-09-20T01:58:21.812Z,11.29
2022-09-20T02:01:12.924Z,11.32
2022-09-20T02:03:57.661Z,11.41
2022-09-20T02:06:46.405Z,11.34
2022-09-20T02:09:28.506Z,11.39
2022-09-20T02:12:22.304Z,11.36
2022-09-20T02:15:10.140Z,11.40
2022-09-20T02:18:01.037Z,11.41
2022-09-20T02:20:56.589Z,11.36
2022-09-20T02:23:32.604Z,11.40
2022-09-20T02:26:03.285Z,11.33
2022-09-20T02:29:00.840Z,11.41
2022-09-20T02:32:05.365Z,11.43
2022-09-20T02:35:12.178Z,11.42
2022-09-20T02:37:50.532Z,11.30
2022-09-20T02:40:23.246Z,11.24
2022-09-20T02:43:16.009Z,11.25
2022-09-20T02:46:17.653Z,11.19
2022-09-20T02:49:07.453Z,11.03
2022-09-20T02:51:42.790Z,11.04
2022-09-20T02:54:20.464Z,11.09
2022-09-20T02:57:06.697Z,11.06
2022-09-20T02:59:52.916Z,10.92
2022-09-20T03:02:29.081Z,11.09
2022-09-20T03:05:07.033Z,11.06
2022-09-20T03:07:58.108Z,11.12
2022-09-20T03:10:48.090Z,11.06
2022-09-20T03:13:36.074Z,11.02
2022-09-20T03:16:08.817Z,10.99
2022-09-20T03:19:08.645Z,11.04
2022-09-20T03:21:53.311Z,11.13
2022-09-20T03:24:39.997Z,11.14
2022-09-20T03:27:48.915Z,11.14
2022-09-20T03:30:33.629Z,11.15
2022-09-20T03:33:05.790Z,11.08
2022-09-20T03:35:57.264Z,11.13
2022-09-20T03:38:50.369Z,11.08
2022-09-20T03:41:40.924Z,11.01
2022-09-20T03:44:24.653Z,10.94
2022-09-20T03:47:06.310Z,10.97
2022-09-20T03:50:10.003Z,10.98
2022-09-20T03:53:11.733Z,10.97
2022-09-20T03:55:53.517Z,10.73
2022-09-20T03:58:41.619Z,10.95
2022-09-20T04:01:32.753Z,10.98
2022-09-20T04:04:27.125Z,11.02
2022-09-20T04:07:11.550Z,11.03
2022-09-20T04:09:47.604Z,11.05
2022-09-20T04:12:19.984Z,11.05
2022-09-20T04:15:18.634Z,11.03
2022-09-20T04:18:03.512Z,11.06
2022-09-20T04:20:38.624Z,10.98
2022-09-20T04:23:24.643Z,11.00
2022-09-20T04:25:51.348Z,11.10
2022-09-20T04:28:25.444Z,11.12
2022-09-20T04:30:56.894Z,11.02
2022-09-20T04:33:37.026Z,10.96
2022-09-20T04:36:31.591Z,11.02
2022-09-20T04:39:27.483Z,10.91
2022-09-20T04:42:19.041Z,10.95
2022-09-20T04:45:08.311Z,10.96
2022-09-20T04:47:59.568Z,10.96
2022-09-20T04:50:41.019Z,10.95
2022-09-20T04:53:29.340Z,11.04
2022-09-20T04:56:11.749Z,11.08
2022-09-20T04:58:38.083Z,11.07
2022-09-20T05:01:17.126Z,11.07
2022-09-20T05:04:02.348Z,11.09
2022-09-20T05:07:04.522Z,11.07
2022-09-20T05:10:14.582Z,11.11
2022-09-20T05:12:57.859Z,11.05
2022-09-20T05:15:43.404Z,11.01
2022-09-20T05:18:42.456Z,11.01
2022-09-20T05:21:24.302Z,11.05
2022-09-20T05:24:32.417Z,11.02
2022-09-20T05:27:12.439Z,11.05
2022-09-20T05:29:55.503Z,10.99
2022-09-20T05:32:53.522Z,10.92
2022-09-20T05:35:49.198Z,10.76
2022-09-20T05:38:40.765Z,10.90
2022-09-20T05:41:42.908Z,10.86
2022-09-20T05:44:40.213Z,10.87
2022-09-20T05:47:19.415Z,10.63
2022-09-20T05:50:15.147Z,10.82
2022-09-20T05:52:54.514Z,10.79
2022-09-20T05:55:35.204Z,10.81
2022-09-20T05:58:08.228Z,10.81
2022-09-20T06:00:44.951Z,10.75
2022-09-20T06:03:23.530Z,10.91
2022-09-20T06:06:02.230Z,10.94
2022-09-20T06:08:40.898Z,10.99
2022-09-20T06:11:31.272Z,10.96
2022-09-20T06:14:32.849Z,11.03
2022-09-20T06:17:14.298Z,11.00
2022-09-20T06:20:06.401Z,11.03
2022-09-20T06:22:59.110Z,11.03
2022-09-20T06:25:34.614Z,11.02
2022-09-20T06:28:21.975Z,11.03
2022-09-20T06:30:53.736Z,11.06
2022-09-20T06:33:25.677Z,10.98
2022-09-20T06:36:34.497Z,11.13
2022-09-20T06:39:50.651Z,11.21
2022-09-20T06:42:17.420Z,11.28
2022-09-20T06:44:43.850Z,11.32
2022-09-20T06:47:11.411Z,11.36
2022-09-20T06:49:39.349Z,11.35
2022-09-20T06:52:07.534Z,11.43
2022-09-20T06:54:34.281Z,11.52
2022-09-20T06:57:04.860Z,11.60
2022-09-20T06:59:31.977Z,11.60
2022-09-20T07:01:58.581Z,11.61
2022-09-20T07:04:26.634Z,11.68
2022-09-20T07:06:59.494Z,11.81
2022-09-20T07:09:25.904Z,11.95
2022-09-20T07:11:52.317Z,12.05
2022-09-20T07:14:19.259Z,12.16
2022-09-20T07:16:45.797Z,12.35
2022-09-20T07:19:12.275Z,12.45
2022-09-20T07:21:38.712Z,12.60
2022-09-20T07:24:05.221Z,12.85
2022-09-20T07:26:31.884Z,13.01
2022-09-20T07:28:59.688Z,13.10
2022-09-20T07:31:28.409Z,13.22
2022-09-20T07:33:55.618Z,13.27
2022-09-20T07:36:22.045Z,13.25
2022-09-20T07:38:50.619Z,13.30
2022-09-20T07:41:22.708Z,13.41
2022-09-20T07:43:50.767Z,13.48
2022-09-20T07:46:17.322Z,13.54
2022-09-20T07:48:44.179Z,13.56
2022-09-20T07:51:13.479Z,13.67
2022-09-20T07:53:40.739Z,13.80
2022-09-20T07:56:11.729Z,13.89
2022-09-20T07:58:38.757Z,14.04
2022-09-20T08:01:08.214Z,14.18
2022-09-20T08:03:35.657Z,14.22
2022-09-20T08:06:04.720Z,14.44
2022-09-20T08:08:38.824Z,14.68
2022-09-20T08:11:08.167Z,14.98
2022-09-20T08:16:26.917Z,14.98
2022-09-20T08:18:59.517Z,15.01
2022-09-20T08:21:31.634Z,15.15
2022-09-20T08:23:59.547Z,15.32
2022-09-20T08:26:28.022Z,15.71
2022-09-20T08:28:56.886Z,15.88
2022-09-20T08:31:26.387Z,16.16
2022-09-20T08:33:54.207Z,16.55
2022-09-20T08:36:24.324Z,16.84
2022-09-20T08:41:46.083Z,17.75
2022-09-20T08:44:25.106Z,17.86
2022-09-20T08:47:06.102Z,18.05
2022-09-20T08:49:33.564Z,18.21
2022-09-20T08:52:03.234Z,18.64
2022-09-20T08:54:34.926Z,18.71
2022-09-20T08:57:05.554Z,18.29
2022-09-20T08:59:32.779Z,19.09
2022-09-20T09:01:59.996Z,19.37
2022-09-20T09:04:37.090Z,19.29
2022-09-20T09:07:04.220Z,19.16
2022-09-20T09:09:37.559Z,19.96
2022-09-20T09:12:05.087Z,20.16
2022-09-20T09:14:53.887Z,20.53
2022-09-20T09:17:28.821Z,20.09
2022-09-20T09:19:57.463Z,19.50
2022-09-20T09:22:30.267Z,18.93
2022-09-20T09:25:20.866Z,17.96
2022-09-20T09:27:59.666Z,16.85
2022-09-20T09:30:29.284Z,16.27
2022-09-20T09:33:14.275Z,16.87
2022-09-20T09:35:40.771Z,17.39
2022-09-20T09:38:24.112Z,16.86
2022-09-20T09:41:02.056Z,16.07
2022-09-20T09:43:35.608Z,16.07
2022-09-20T09:46:24.027Z,16.22
2022-09-20T09:49:11.899Z,16.49
2022-09-20T09:51:43.071Z,17.13
2022-09-20T09:54:18.126Z,17.82
2022-09-20T09:56:59.521Z,18.61
2022-09-20T10:00:00.791Z,18.96
2022-09-20T10:02:41.034Z,19.26
2022-09-20T10:05:10.912Z,19.44
2022-09-20T10:08:28.765Z,19.31
2022-09-20T10:11:10.184Z,19.62
2022-09-20T10:14:15.214Z,20.11
2022-09-20T10:17:04.775Z,20.53
2022-09-20T10:19:46.166Z,21.30
2022-09-20T10:22:17.753Z,21.54
2022-09-20T10:25:25.221Z,20.16
2022-09-20T10:28:28.477Z,18.61
2022-09-20T10:31:15.096Z,18.11
2022-09-20T10:34:11.268Z,18.31
2022-09-20T10:36:49.588Z,18.23
2022-09-20T10:39:16.019Z,17.95
2022-09-20T10:42:19.283Z,17.37
2022-09-20T10:45:24.397Z,16.71
2022-09-20T10:48:18.110Z,16.30
2022-09-20T10:50:54.198Z,16.11
2022-09-20T10:53:27.166Z,16.61
2022-09-20T10:56:09.567Z,16.73
2022-09-20T10:58:45.918Z,16.82
2022-09-20T11:01:34.806Z,16.98
2022-09-20T11:04:37.400Z,17.22
2022-09-20T11:07:24.564Z,17.25
2022-09-20T11:09:57.585Z,17.00
2022-09-20T11:12:28.030Z,16.88
2022-09-20T11:14:59.448Z,16.91
2022-09-20T11:17:41.942Z,16.74
2022-09-20T11:20:21.013Z,16.47
2022-09-20T11:22:52.590Z,16.29
2022-09-20T11:25:23.998Z,16.31
2022-09-20T11:28:10.617Z,16.18
2022-09-20T11:30:45.269Z,15.95
2022-09-20T11:33:21.110Z,15.77
2022-09-20T11:36:03.168Z,15.44
2022-09-20T11:38:40.587Z,15.51
2022-09-20T11:41:23.157Z,15.50
2022-09-20T11:43:50.857Z,15.44
2022-09-20T11:46:32.944Z,15.37
2022-09-20T11:49:10.929Z,15.38
2022-09-20T11:52:03.606Z,15.33
2022-09-20T11:55:10.838Z,15.28
2022-09-20T11:57:38.210Z,15.33
2022-09-20T12:00:08.527Z,15.36
2022-09-20T12:02:51.659Z,15.43
2022-09-20T12:05:29.811Z,15.52
2022-09-20T12:07:59.562Z,15.59
2022-09-20T12:10:30.534Z,15.63
2022-09-20T12:13:02.606Z,15.69
2022-09-20T12:15:41.795Z,15.74
2022-09-20T12:18:28.243Z,15.94
2022-09-20T12:21:15.926Z,16.05
2022-09-20T12:24:15.984Z,16.26
2022-09-20T12:26:44.083Z,16.29
2022-09-20T12:29:31.202Z,16.21
2022-09-20T12:32:00.975Z,16.01
2022-09-20T12:34:27.801Z,16.11
2022-09-20T12:36:57.530Z,16.15
2022-09-20T12:39:29.972Z,16.13
2022-09-20T12:42:12.123Z,16.15
2022-09-20T12:44:41.414Z,16.17
2022-09-20T12:47:20.214Z,16.05
2022-09-20T12:50:05.415Z,16.13
2022-09-20T12:52:53.734Z,16.10
2022-09-20T12:55:28.181Z,16.10
2022-09-20T12:58:04.098Z,16.12
2022-09-20T13:00:46.641Z,16.06
2022-09-20T13:03:57.342Z,16.14
2022-09-20T13:06:25.276Z,16.17
2022-09-20T13:08:51.635Z,16.21
2022-09-20T13:11:42.126Z,16.10
2022-09-20T13:14:32.429Z,16.19
2022-09-20T13:17:19.258Z,16.22
2022-09-20T13:19:47.810Z,16.18
2022-09-20T13:22:26.753Z,16.17
2022-09-20T13:24:57.952Z,16.02
2022-09-20T13:27:38.395Z,16.12
2022-09-20T13:30:17.456Z,16.10
2022-09-20T13:32:44.518Z,16.00
2022-09-20T13:35:22.433Z,15.98
2022-09-20T13:37:56.008Z,15.92
2022-09-20T13:40:40.867Z,15.97
2022-09-20T13:43:29.666Z,16.12
2022-09-20T13:45:58.918Z,16.04
2022-09-20T13:48:30.145Z,15.91
2022-09-20T13:50:57.934Z,15.98
2022-09-20T13:53:41.023Z,15.88
2022-09-20T13:56:18.896Z,15.77
2022-09-20T13:58:45.651Z,15.76
2022-09-20T14:01:27.129Z,15.72
2022-09-20T14:03:54.510Z,15.62
2022-09-20T14:06:29.564Z,15.52
2022-09-20T14:08:58.717Z,15.65
2022-09-20T14:11:33.711Z,15.76
2022-09-20T14:14:02.547Z,15.77
2022-09-20T14:16:32.680Z,15.69
2022-09-20T14:19:00.334Z,15.71
2022-09-20T14:21:31.709Z,15.79
2022-09-20T14:24:02.623Z,15.81
2022-09-20T14:26:36.544Z,15.89
2022-09-20T14:29:34.280Z,15.99
2022-09-20T14:32:17.311Z,15.93
2022-09-20T14:34:58.982Z,15.88
2022-09-20T14:37:42.923Z,15.92
2022-09-20T14:40:27.527Z,15.92
2022-09-20T14:42:57.436Z,15.89
2022-09-20T14:45:27.703Z,15.77
2022-09-20T14:48:11.637Z,15.82
2022-09-20T14:51:06.349Z,15.75
2022-09-20T14:53:37.072Z,15.64
2022-09-20T14:56:06.214Z,15.66
2022-09-20T14:58:34.201Z,15.63
2022-09-20T15:01:22.686Z,15.63
2022-09-20T15:03:49.761Z,15.57
2022-09-20T15:06:17.813Z,15.54
2022-09-20T15:08:46.679Z,15.55
2022-09-20T15:11:18.130Z,15.33
2022-09-20T15:13:44.788Z,15.49
2022-09-20T15:16:17.476Z,15.47
2022-09-20T15:18:44.824Z,15.42
2022-09-20T15:21:12.689Z,15.35
2022-09-20T15:23:40.352Z,15.29
2022-09-20T15:26:08.844Z,15.23
2022-09-20T15:28:35.403Z,15.18
2022-09-20T15:31:01.982Z,15.23
2022-09-20T15:33:30.809Z,15.24
2022-09-20T15:35:57.640Z,15.22
2022-09-20T15:38:26.962Z,15.15
2022-09-20T15:40:53.954Z,15.16
2022-09-20T15:43:24.197Z,15.11
2022-09-20T15:45:53.409Z,15.06
2022-09-20T15:48:22.534Z,15.02
2022-09-20T15:51:06.887Z,15.02
2022-09-20T15:53:45.013Z,15.02
2022-09-20T15:56:21.226Z,14.93
2022-09-20T15:59:09.571Z,14.94
2022-09-20T16:01:48.084Z,14.90
2022-09-20T16:04:19.455Z,14.92
2022-09-20T16:06:49.356Z,14.84
2022-09-20T16:09:16.139Z,14.85
2022-09-20T16:11:42.544Z,14.82
2022-09-20T16:14:09.074Z,14.79
2022-09-20T16:16:39.963Z,14.79
2022-09-20T16:19:17.917Z,14.75
2022-09-20T16:21:55.122Z,14.83
2022-09-20T16:24:26.123Z,14.78
2022-09-20T16:26:52.659Z,14.77
2022-09-20T16:29:19.473Z,14.79
2022-09-20T16:31:47.793Z,14.75
2022-09-20T16:34:19.218Z,14.75
2022-09-20T16:36:50.928Z,14.57
2022-09-20T16:39:18.960Z,14.65
2022-09-20T16:41:47.830Z,14.63
2022-09-20T16:44:15.596Z,14.66
2022-09-20T16:46:41.977Z,14.62
2022-09-20T16:49:11.607Z,14.59
2022-09-20T16:51:40.263Z,14.57
2022-09-20T16:54:12.709Z,14.47
2022-09-20T16:56:41.537Z,14.48
2022-09-20T16:59:08.234Z,14.45
2022-09-20T17:01:36.876Z,14.42
2022-09-20T17:04:05.367Z,14.39
2022-09-20T17:06:34.449Z,14.36
2022-09-20T17:09:01.271Z,14.31
2022-09-20T17:11:33.485Z,14.29
2022-09-20T17:14:00.131Z,14.21
2022-09-20T17:16:32.559Z,14.20
2022-09-20T17:19:01.396Z,14.16
2022-09-20T17:21:30.007Z,14.09
2022-09-20T17:23:59.271Z,13.95
2022-09-20T17:26:33.507Z,13.98
2022-09-20T17:29:02.040Z,13.89
2022-09-20T17:31:34.012Z,13.84
2022-09-20T17:34:02.246Z,13.81
2022-09-20T17:36:34.057Z,13.76
2022-09-20T17:39:04.379Z,13.76
2022-09-20T17:41:33.697Z,13.75
2022-09-20T17:44:02.694Z,13.74
2022-09-20T17:46:31.699Z,13.69
2022-09-20T17:49:01.142Z,13.52
2022-09-20T17:51:32.550Z,13.42
2022-09-20T17:53:59.074Z,13.35
2022-09-20T17:56:30.923Z,13.28
2022-09-20T17:59:00.057Z,13.18
2022-09-20T18:01:28.010Z,13.14
2022-09-20T18:03:56.650Z,13.15
2022-09-20T18:06:35.385Z,13.00
2022-09-20T18:09:06.591Z,13.04
2022-09-20T18:11:35.831Z,13.05
2022-09-20T18:14:03.662Z,12.90
2022-09-20T18:16:31.025Z,12.93
2022-09-20T18:18:59.757Z,12.91
2022-09-20T18:21:28.426Z,12.89
2022-09-20T18:23:55.965Z,12.92
2022-09-20T18:26:24.491Z,12.90
2022-09-20T18:29:11.077Z,12.97
2022-09-20T18:31:44.665Z,13.02
2022-09-20T18:34:20.046Z,13.05
2022-09-20T18:36:54.110Z,13.06
2022-09-20T18:39:21.908Z,13.02
2022-09-20T18:41:50.350Z,13.08
2022-09-20T18:44:18.368Z,13.10
2022-09-20T18:46:46.477Z,13.15
2022-09-20T18:49:17.538Z,13.18
2022-09-20T18:51:44.612Z,13.21
2022-09-20T18:54:12.143Z,13.18
2022-09-20T18:56:43.155Z,13.13
2022-09-20T18:59:21.773Z,13.10
2022-09-20T19:01:53.837Z,13.09
2022-09-20T19:05:00.232Z,13.17
2022-09-20T19:07:42.466Z,13.09
2022-09-20T19:10:26.750Z,13.10
2022-09-20T19:13:06.622Z,13.03
2022-09-20T19:15:50.495Z,13.10
2022-09-20T19:18:30.835Z,13.06
2022-09-20T19:21:03.378Z,13.09
2022-09-20T19:24:04.080Z,13.10
2022-09-20T19:26:32.087Z,13.12
2022-09-20T19:29:00.250Z,13.06
2022-09-20T19:31:32.267Z,13.14
2022-09-20T19:34:03.018Z,13.05
2022-09-20T19:36:39.343Z,13.17
2022-09-20T19:39:43.431Z,13.19
2022-09-20T19:42:19.568Z,13.20
2022-09-20T19:45:07.175Z,13.18
2022-09-20T19:47:47.183Z,13.23
2022-09-20T19:50:22.926Z,13.26
2022-09-20T19:52:50.072Z,13.27
2022-09-20T19:55:16.804Z,13.24
2022-09-20T19:57:46.964Z,13.24
2022-09-20T20:00:15.916Z,13.18
2022-09-20T20:02:44.203Z,13.20
2022-09-20T20:05:12.300Z,13.18
2022-09-20T20:08:04.364Z,13.15
2022-09-20T20:10:59.067Z,13.13
2022-09-20T20:14:12.091Z,13.19
2022-09-20T20:16:56.038Z,13.17
2022-09-20T20:19:37.648Z,13.20
2022-09-20T20:22:16.146Z,13.17
2022-09-20T20:24:51.758Z,13.10
2022-09-20T20:27:19.055Z,13.14
2022-09-20T20:29:45.789Z,13.15
2022-09-20T20:32:12.493Z,13.16
2022-09-20T20:34:39.109Z,13.13
2022-09-20T20:37:05.544Z,13.07
2022-09-20T20:39:32.517Z,13.08
2022-09-20T20:42:02.265Z,13.13
2022-09-20T20:44:30.299Z,13.14
2022-09-20T20:46:56.921Z,13.05
2022-09-20T20:49:23.457Z,13.02
2022-09-20T20:51:49.858Z,12.98
2022-09-20T20:54:16.267Z,12.96
2022-09-20T20:56:42.844Z,12.96
2022-09-20T20:59:09.210Z,12.97
2022-09-20T21:01:45.629Z,13.01
2022-09-20T21:04:13.289Z,12.99
2022-09-20T21:06:41.469Z,12.97
2022-09-20T21:09:11.884Z,12.94
2022-09-20T21:11:44.121Z,12.88
2022-09-20T21:14:12.435Z,12.87
2022-09-20T21:16:45.052Z,12.67
2022-09-20T21:19:15.272Z,12.81
2022-09-20T21:21:43.394Z,12.79
2022-09-20T21:24:12.117Z,12.75
2022-09-20T21:26:39.738Z,12.73
2022-09-20T21:29:09.998Z,12.77
2022-09-20T21:31:39.057Z,12.87
2022-09-20T21:34:07.002Z,12.91
2022-09-20T21:36:34.717Z,12.85
2022-09-20T21:39:01.376Z,12.86
2022-09-20T21:41:36.604Z,12.89
2022-09-20T21:44:04.757Z,12.94
2022-09-20T21:46:42.612Z,12.87
2022-09-20T21:49:11.325Z,12.88
2022-09-20T21:51:39.414Z,12.89
2022-09-20T21:54:06.024Z,12.90
2022-09-20T21:56:36.233Z,12.91
2022-09-20T21:59:04.283Z,12.86
2022-09-20T22:01:36.130Z,12.87
2022-09-20T22:04:20.655Z,12.88
2022-09-20T22:06:47.090Z,12.92
2022-09-20T22:09:16.230Z,12.80
2022-09-20T22:11:45.332Z,12.89
2022-09-20T22:14:12.984Z,12.86
2022-09-20T22:16:41.058Z,12.82
2022-09-20T22:19:09.935Z,12.80
2022-09-20T22:21:42.176Z,12.85
2022-09-20T22:24:10.479Z,12.82
2022-09-20T22:26:39.775Z,12.80
2022-09-20T22:29:06.840Z,12.80
2022-09-20T22:31:35.240Z,12.76
2022-09-20T22:34:04.434Z,12.68
2022-09-20T22:36:36.306Z,12.68
2022-09-20T22:39:04.644Z,12.58
2022-09-20T22:41:31.049Z,12.77
2022-09-20T22:43:57.551Z,12.73
2022-09-20T22:46:26.290Z,12.75
2022-09-20T22:48:52.813Z,12.71
2022-09-20T22:51:25.020Z,12.72
2022-09-20T22:53:52.653Z,12.77
2022-09-20T22:56:24.973Z,12.67
2022-09-20T22:58:54.414Z,12.62
2022-09-20T23:01:26.425Z,12.62
2022-09-20T23:03:56.076Z,12.51
2022-09-20T23:06:25.971Z,12.47
2022-09-20T23:08:55.378Z,12.38
2022-09-20T23:11:22.123Z,12.50
2022-09-20T23:13:56.912Z,12.50
2022-09-20T23:16:26.351Z,12.48
2022-09-20T23:18:54.286Z,12.56
2022-09-20T23:21:21.784Z,12.59
2022-09-20T23:23:55.964Z,12.59
2022-09-20T23:26:23.491Z,12.53
2022-09-20T23:28:55.260Z,12.49
2022-09-20T23:31:22.274Z,12.43
2022-09-20T23:33:50.531Z,12.42
2022-09-20T23:36:18.564Z,12.34
2022-09-20T23:38:45.676Z,12.36
2022-09-20T23:41:13.970Z,12.35
2022-09-20T23:43:41.721Z,12.29
2022-09-20T23:46:09.402Z,12.28
2022-09-20T23:48:36.413Z,12.31
2022-09-20T23:51:06.129Z,12.17
2022-09-20T23:53:33.344Z,12.15
2022-09-20T23:56:00.152Z,12.16
2022-09-20T23:58:26.646Z,12.16
